Castlewood, VA (24224)

10:36 PM EDT on April 26, 2015 (GMT -0400)
My Side Of The Mountain | | Change Station
CLOSE
Current Station
Personal Weather Station
Location: Lebanon, VA
Elevation: 2480 ft
Nearby Weather Stations

Elev 2480 ft 36.85 °N, 82.12 °W | Updated 3 seconds ago

Mostly Cloudy
Mostly Cloudy
44.2 °F
Feels Like 44 °F
N
0.0
Wind Variable Wind from ENE
Gusts 0.0 mph

Today
High -- | Low -- °F
--% Chance of Precip.
Yesterday
High -- | Low -- °F
Precip. -- in
6:41 AM 8:13 PM
First Quarter, 61% visible
Pressure 29.84 in
Visibility 10.0 miles
Clouds Mostly Cloudy 6500 ft
Windchill 44 °F
Dew Point 42 °F
Humidity 93%
Rainfall 0.56 in
Snow Depth Not available.
UV 0 out of 12
Pollen 6.40 out of 12
Air Quality Not available.
Flu Activity Sporadic
METAR KLNP 270215Z AUTO 00000KT 10SM BKN065 07/03 A2984 RMK AO2

More Conditions Fewer Conditions

Pressure 29.84 in
Visibility 10.0 miles
Clouds Mostly Cloudy 6500 ft
Windchill 44 °F
Dew Point 42 °F
Humidity 93%
Rainfall 0.56 in
Snow Depth Not available.
UV 0 out of 12
Pollen 6.40 out of 12
Air Quality Not available.
Flu Activity Sporadic
METAR KLNP 270215Z AUTO 00000KT 10SM BKN065 07/03 A2984 RMK AO2

More Conditions Fewer Conditions

The full scope of the disaster following a powerful 7.8-magnitude earthquake in Nepal may not come into view for days, but global charities are already sending emergency aid. Click to see how you can help.

10-Day Weather Forecast

Almanac

Astronomy

Apr. 26, 2015 Rise Set
Actual Time
Civil Twilight
Nautical Twilight
Astronomical Twilight
Moon
Length of Visible Light
Length of Day
Tomorrow will be .
, % of the Moon is Illuminated

Today's Extremes

State Highs State Lows

Community

WunderPhotos

Upload Photos

1,817,204 photos uploaded!

WunderBlogs® & News

Nearby

Air Quality

  Air Quality AQ Index Pollutant
Not available.

Snow Depth

Station Depth Elevation

Earthquake Activity

City Distance Mag. Time & Date
Minimum magnitude displayed is 2.5.

Coastal Water Temperatures

Place Temperature

Stations

Nearby Weather Stations

Station Location Temp. Windchill Dew Point Humidity Wind Precip. Elev Updated Type